LEBLGCLP

Guest
Details From LEBL - Barcelona - El Prat
To GCLP - Gran Canaria
Flight Number -
Tags decoded
Created
Modified
Stats Distance 1,183 nm / 2,191 km
Max Altitude 0 ft / 0 m
Waypoints 13
Social Downloads 1
Likes 0
Share VATSIM

Download

Looking for another format? Having issues loading an existing format? Contact us
Advertisement - Login to hide

Notes

Requested: LEBL LOTOS UM985 ASTRO UQ45 KORNO UN857 TERTO GCLP Unmatched points: UQ45

Route

LEBL LOTOS UM985 ASTRO KORNO UN857 TERTO GCLP

ID Type Via Altitude Latitude Longitude Leg Dist Tot Dist Heading (true) Name
O LEBL APT - 0 ft / 0 m 41.29511˚ 2.08803˚ - 0 nm - Barcelona - El Prat
LOTOS FIX - 0 ft / 0 m 40.54969˚ 1.00298˚ 66 nm 66 nm 228° / 227° -
SOPET FIX UM985 (AWY-HI) 0 ft / 0 m 39.83384˚ -0.00468˚ 63 nm 129 nm 227° / 227° -
VLC VOR UM985 (AWY-HI) 0 ft / 0 m 39.48565˚ -0.48304˚ 30 nm 160 nm 227° / 226° VALENCIA VOR-DME
ASTRO FIX UM985 (AWY-HI) 0 ft / 0 m 39.02438˚ -1.26300˚ 45 nm 205 nm 233° / 232° -
KORNO FIX - 0 ft / 0 m 35.83333˚ -7.41667˚ 350 nm 556 nm 239° / 235° -
ABODA FIX UN857 (AWY-HI) 0 ft / 0 m 35.41389˚ -7.83333˚ 32 nm 588 nm 219° / 219° -
IBALU FIX UN857 (AWY-HI) 0 ft / 0 m 34.44444˚ -8.78917˚ 74 nm 663 nm 219° / 219° -
AMETA FIX UN857 (AWY-HI) 0 ft / 0 m 32.99750˚ -10.14833˚ 110 nm 773 nm 218° / 218° -
TURMA FIX UN857 (AWY-HI) 0 ft / 0 m 31.75389˚ -11.27750˚ 94 nm 867 nm 218° / 217° -
VEDOD FIX UN857 (AWY-HI) 0 ft / 0 m 30.50833˚ -12.37500˚ 93 nm 961 nm 217° / 217° -
TERTO FIX UN857 (AWY-HI) 0 ft / 0 m 30.10417˚ -12.71722˚ 30 nm 991 nm 216° / 216° -
O GCLP APT - 0 ft / 0 m 27.93154˚ -15.38559˚ 191 nm 1182 nm 228° / 226° Gran Canaria

Altitude Profile

Advertisement - Login to hide

Weather


0- 5 10 15 20 25 30 35+ Temperature / ° C

Clouds and Precipitation
Forecast for 2017-12-15 06:00 UTC. Updated an hour ago

Ground ~20,000 ft ~40,000 ft Winds

LEBL

Details ICAO LEBL (BCN)
Name Barcelona - El Prat
Region Spain
Timezone Europe/Madrid (UTC+1.0)
Stats Elevation 14 ft / 4 m (AMSL)
Location 41.295108° 2.088030°
Runways 3
Magnetic Variation 0.820° E

METAR

LEBL 150430Z 32006KT 9999 FEW040 11/09 Q1006 NOSIG

Decode

TAF

TAF LEBL 142300Z 1500/1524 25012KT 9999 FEW030 TX16/1512Z TN07/1507Z TEMPO 1500/1506 34005KT TEMPO 1514/1518 VRB06KT

Decode

Departure Runways

ID Width Length Bearing (true) Bearing (mag) Surface Threshold Offset Overrun Length
02 148 ft / 45 m 8,343 ft / 2,543 m 18.93° 18.11° Asphalt 0 ft / 0 m 348 ft / 106 m
07L 197 ft / 60 m 10,983 ft / 3,348 m 65.49° 64.67° Asphalt 1,411 ft / 430 m 1,161 ft / 354 m
07R 197 ft / 60 m 8,718 ft / 2,657 m 65.49° 64.67° Asphalt 0 ft / 0 m 207 ft / 63 m
20 148 ft / 45 m 8,343 ft / 2,543 m 198.93° 198.11° Asphalt 0 ft / 0 m 200 ft / 61 m
25L 197 ft / 60 m 8,718 ft / 2,657 m 245.51° 244.69° Asphalt 0 ft / 0 m 203 ft / 62 m
25R 197 ft / 60 m 10,983 ft / 3,348 m 245.51° 244.69° Asphalt 0 ft / 0 m 522 ft / 159 m

GCLP

Details ICAO GCLP (LPA)
Name Gran Canaria
Region Canary Islands
Timezone Atlantic/Canary (UTC+0.0)
Stats Elevation 77 ft / 23 m (AMSL)
Location 27.931544° -15.385592°
Runways 2
Magnetic Variation 4.684° W

METAR

GCLP 150430Z 36013KT 9999 FEW035 SCT040 18/11 Q1023 NOSIG

Decode

TAF

TAF GCLP 150200Z 1503/1603 01018KT 9999 FEW025 TX22/1514Z TN16/1506Z= TAF AMD NWWW 150237Z 1502/1524 13016KT 9999 FEW013 BKN040 BKN130 TEMPO 1502/1508 4500 SHRA BKN020 FEW030CB PROB30 TEMPO 1502/1506 1500 TSRA BKN015 SCT020CB BECMG 1507/1509 10006KT

Decode

Destination Runways

ID Width Length Bearing (true) Bearing (mag) Surface Threshold Offset Overrun Length
03L 148 ft / 45 m 10,203 ft / 3,110 m 21.33° 26.01° Asphalt 0 ft / 0 m 656 ft / 200 m
03R 148 ft / 45 m 10,200 ft / 3,109 m 21.32° 26.00° Asphalt 0 ft / 0 m 673 ft / 205 m
21L 148 ft / 45 m 10,200 ft / 3,109 m 201.33° 206.01° Asphalt 0 ft / 0 m 689 ft / 210 m
21R 148 ft / 45 m 10,203 ft / 3,110 m 201.33° 206.01° Asphalt 0 ft / 0 m 755 ft / 230 m

Approach Navaids

Runway Type Ident Frequency Range Bearing (true) Bearing (mag) Slope Elevation
03L Localiser ILP 109.90 MHz 18 nm / 33 km 21.33° 26.02° - 77 ft / 23 m (AMSL)
03L Glidescope ILP 109.90 MHz 10 nm / 19 km 21.33° 26.02° 3.00° 102 ft / 31 m (AMSL)
03L DME ILP 109.90 MHz 18 nm / 33 km - - - 102 ft / 31 m (AMSL)
21R Localiser RLP 110.70 MHz 18 nm / 33 km 201.32° 206.01° - 77 ft / 23 m (AMSL)
21R Glidescope RLP 110.70 MHz 10 nm / 19 km 201.33° 206.02° 3.00° 77 ft / 23 m (AMSL)
21R DME RLP 110.70 MHz 18 nm / 33 km - - - 57 ft / 17 m (AMSL)

Popular Alternatives